createdAt,value
2023-04-24T00:01:51.389Z,99402.95
2023-04-24T00:04:18.652Z,99404.44
2023-04-24T00:06:50.589Z,99401.50
2023-04-24T00:09:17.511Z,99402.58
2023-04-24T00:11:44.351Z,99404.20
2023-04-24T00:14:11.307Z,99402.05
2023-04-24T00:16:38.204Z,99401.66
2023-04-24T00:19:06.989Z,99402.84
2023-04-24T00:21:33.885Z,99401.43
2023-04-24T00:24:01.001Z,99398.77
2023-04-24T00:26:28.004Z,99397.88
2023-04-24T00:28:54.854Z,99397.34
2023-04-24T00:31:22.153Z,99394.48
2023-04-24T00:33:49.123Z,99396.48
2023-04-24T00:36:16.130Z,99392.79
2023-04-24T00:38:43.060Z,99396.27
2023-04-24T00:41:10.556Z,99396.10
2023-04-24T00:43:37.892Z,99400.28
2023-04-24T00:46:04.857Z,99397.02
2023-04-24T00:48:32.005Z,99398.95
2023-04-24T00:50:59.888Z,99399.53
2023-04-24T00:53:26.824Z,99400.28
2023-04-24T00:55:53.779Z,99399.95
2023-04-24T00:58:21.239Z,99401.73
2023-04-24T01:00:48.503Z,99398.58
2023-04-24T01:03:15.458Z,99397.68
2023-04-24T01:05:42.810Z,99395.71
2023-04-24T01:08:09.770Z,99396.52
2023-04-24T01:10:36.661Z,99394.83
2023-04-24T01:13:03.590Z,99394.50
2023-04-24T01:15:30.640Z,99391.36
2023-04-24T01:17:57.690Z,99388.88
2023-04-24T01:20:25.789Z,99386.17
2023-04-24T01:22:53.851Z,99386.10
2023-04-24T01:25:24.014Z,99384.14
2023-04-24T01:27:51.326Z,99389.02
2023-04-24T01:30:18.212Z,99386.16
2023-04-24T01:32:45.772Z,99384.48
2023-04-24T01:35:12.778Z,99384.77
2023-04-24T01:37:39.848Z,99383.43
2023-04-24T01:40:08.284Z,99382.77
2023-04-24T01:42:35.519Z,99380.79
2023-04-24T01:45:04.400Z,99377.17
2023-04-24T01:47:31.954Z,99376.49
2023-04-24T01:49:59.292Z,99376.82
2023-04-24T01:52:26.776Z,99374.86
2023-04-24T01:54:54.851Z,99376.04
2023-04-24T01:57:21.788Z,99373.52
2023-04-24T01:59:48.735Z,99370.83
2023-04-24T02:02:16.148Z,99370.48
2023-04-24T02:04:43.662Z,99365.95
2023-04-24T02:07:10.538Z,99365.83
2023-04-24T02:09:37.483Z,99366.85
2023-04-24T02:12:04.492Z,99363.46
2023-04-24T02:14:31.378Z,99360.66
2023-04-24T02:16:58.931Z,99359.97
2023-04-24T02:19:25.881Z,99365.25
2023-04-24T02:21:52.832Z,99360.86
2023-04-24T02:24:19.782Z,99360.23
2023-04-24T02:26:46.743Z,99360.44
2023-04-24T02:29:13.681Z,99360.15
2023-04-24T02:31:41.834Z,99360.50
2023-04-24T02:34:08.914Z,99360.05
2023-04-24T02:36:35.769Z,99355.70
2023-04-24T02:39:02.714Z,99358.79
2023-04-24T02:41:32.869Z,99359.29
2023-04-24T02:43:59.990Z,99357.45
2023-04-24T02:46:26.967Z,99357.54
2023-04-24T02:48:54.003Z,99355.41
2023-04-24T02:51:20.947Z,99355.73
2023-04-24T02:53:47.965Z,99350.79
2023-04-24T02:56:14.885Z,99346.95
2023-04-24T02:58:41.916Z,99349.56
2023-04-24T03:01:11.328Z,99348.80
2023-04-24T03:03:41.533Z,99347.63
2023-04-24T03:06:09.539Z,99346.33
2023-04-24T03:08:36.548Z,99342.50
2023-04-24T03:11:03.729Z,99344.47
2023-04-24T03:13:30.610Z,99343.45
2023-04-24T03:15:57.504Z,99345.23
2023-04-24T03:18:24.474Z,99342.80
2023-04-24T03:20:51.732Z,99341.54
2023-04-24T03:23:18.890Z,99342.21
2023-04-24T03:25:46.564Z,99342.54
2023-04-24T03:28:13.810Z,99348.27
2023-04-24T03:30:44.269Z,99349.39
2023-04-24T03:33:11.607Z,99352.77
2023-04-24T03:35:43.371Z,99355.55
2023-04-24T03:38:11.466Z,99356.58
2023-04-24T03:40:57.026Z,99361.05
2023-04-24T03:43:36.059Z,99359.50
2023-04-24T03:46:03.399Z,99361.83
2023-04-24T03:48:31.691Z,99368.04
2023-04-24T03:50:58.554Z,99365.45
2023-04-24T03:53:25.828Z,99367.34
2023-04-24T03:55:52.853Z,99369.24
2023-04-24T03:58:19.781Z,99370.52
2023-04-24T04:00:48.920Z,99371.31
2023-04-24T04:03:34.672Z,99369.86
2023-04-24T04:06:01.722Z,99371.30
2023-04-24T04:08:28.629Z,99371.75
2023-04-24T04:10:56.050Z,99370.82
2023-04-24T04:13:23.806Z,99371.73
2023-04-24T04:15:51.096Z,99374.23
2023-04-24T04:18:18.332Z,99375.98
2023-04-24T04:20:45.837Z,99378.85
2023-04-24T04:23:13.958Z,99377.55
2023-04-24T04:25:52.931Z,99375.36
2023-04-24T04:28:22.399Z,99375.84
2023-04-24T04:30:50.187Z,99375.30
2023-04-24T04:33:17.489Z,99375.09
2023-04-24T04:35:44.796Z,99378.01
2023-04-24T04:38:12.698Z,99379.67
2023-04-24T04:40:47.486Z,99379.43
2023-04-24T04:43:16.007Z,99378.99
2023-04-24T04:45:49.490Z,99383.08
2023-04-24T04:48:39.132Z,99381.91
2023-04-24T04:51:06.607Z,99382.35
2023-04-24T04:53:33.478Z,99384.46
2023-04-24T04:56:00.995Z,99380.42
2023-04-24T04:58:34.745Z,99375.66
2023-04-24T05:01:02.049Z,99378.42
2023-04-24T05:03:32.886Z,99376.35
2023-04-24T05:06:03.939Z,99373.41
2023-04-24T05:08:32.935Z,99377.02
2023-04-24T05:11:00.203Z,99378.21
2023-04-24T05:13:38.155Z,99377.44
2023-04-24T05:16:08.339Z,99377.52
2023-04-24T05:18:35.378Z,99376.20
2023-04-24T05:21:02.472Z,99373.39
2023-04-24T05:23:29.394Z,99373.75
2023-04-24T05:25:56.670Z,99371.27
2023-04-24T05:28:23.562Z,99371.08
2023-04-24T05:31:02.306Z,99367.36
2023-04-24T05:33:29.606Z,99369.74
2023-04-24T05:35:56.559Z,99371.66
2023-04-24T05:38:23.509Z,99369.27
2023-04-24T05:40:50.356Z,99370.99
2023-04-24T05:43:17.233Z,99371.16
2023-04-24T05:45:44.104Z,99368.36
2023-04-24T05:48:11.075Z,99365.91
2023-04-24T05:50:38.173Z,99361.24
2023-04-24T05:53:05.533Z,99356.52
2023-04-24T05:55:34.434Z,99354.98
2023-04-24T05:58:02.121Z,99355.92
2023-04-24T06:00:30.452Z,99359.55
2023-04-24T06:03:01.721Z,99358.38
2023-04-24T06:05:30.188Z,99353.81
2023-04-24T06:07:57.376Z,99351.16
2023-04-24T06:10:26.764Z,99351.80
2023-04-24T06:12:53.810Z,99354.00
2023-04-24T06:15:20.767Z,99355.02
2023-04-24T06:17:53.394Z,99355.61
2023-04-24T06:20:21.140Z,99354.48
2023-04-24T06:22:48.195Z,99350.16
2023-04-24T06:25:15.140Z,99349.05
2023-04-24T06:27:41.993Z,99354.13
2023-04-24T06:30:09.698Z,99351.06
2023-04-24T06:32:36.671Z,99349.44
2023-04-24T06:35:04.502Z,99342.30
2023-04-24T06:37:33.343Z,99343.56
2023-04-24T06:40:00.335Z,99337.73
2023-04-24T06:42:27.278Z,99339.84
2023-04-24T06:44:56.247Z,99338.05
2023-04-24T06:47:23.350Z,99337.23
2023-04-24T06:49:52.083Z,99340.95
2023-04-24T06:52:19.387Z,99337.16
2023-04-24T06:54:46.334Z,99340.73
2023-04-24T06:57:13.386Z,99342.70
2023-04-24T06:59:40.296Z,99342.02
2023-04-24T07:02:07.616Z,99342.45
2023-04-24T07:04:34.882Z,99340.84
2023-04-24T07:07:02.049Z,99340.90
2023-04-24T07:09:28.962Z,99344.61
2023-04-24T07:11:57.534Z,99347.73
2023-04-24T07:14:24.501Z,99347.46
2023-04-24T07:16:51.367Z,99345.73
2023-04-24T07:19:18.341Z,99349.55
2023-04-24T07:21:45.254Z,99348.80
2023-04-24T07:24:13.984Z,99344.61
2023-04-24T07:26:41.510Z,99345.79
2023-04-24T07:29:08.983Z,99345.46
2023-04-24T07:31:36.175Z,99342.42
2023-04-24T07:34:03.309Z,99338.70
2023-04-24T07:36:30.232Z,99343.39
2023-04-24T07:38:58.116Z,99344.48
2023-04-24T07:41:25.486Z,99340.77
2023-04-24T07:43:53.778Z,99341.70
2023-04-24T07:46:21.420Z,99339.80
2023-04-24T07:48:58.611Z,99342.85
2023-04-24T07:51:33.799Z,99339.73
2023-04-24T07:54:00.797Z,99340.97
2023-04-24T07:56:28.144Z,99339.52
2023-04-24T07:58:55.862Z,99344.92
2023-04-24T08:01:22.722Z,99343.81
2023-04-24T08:03:49.800Z,99347.73
2023-04-24T08:06:16.846Z,99344.79
2023-04-24T08:08:43.829Z,99346.36
2023-04-24T08:11:11.016Z,99351.89
2023-04-24T08:13:38.051Z,99350.97
2023-04-24T08:16:05.257Z,99347.31
2023-04-24T08:18:32.202Z,99348.84
2023-04-24T08:21:02.645Z,99348.39
2023-04-24T08:23:30.965Z,99348.34
2023-04-24T08:25:58.932Z,99348.66
2023-04-24T08:28:26.513Z,99345.50
2023-04-24T08:30:55.965Z,99341.79
2023-04-24T08:33:24.061Z,99341.05
2023-04-24T08:35:51.194Z,99339.60
2023-04-24T08:38:18.357Z,99332.85
2023-04-24T08:40:47.264Z,99333.90
2023-04-24T08:43:14.790Z,99331.38
2023-04-24T08:45:41.868Z,99329.33
2023-04-24T08:48:13.985Z,99326.48
2023-04-24T08:50:47.173Z,99326.84
2023-04-24T08:53:14.127Z,99323.88
2023-04-24T08:55:40.991Z,99321.79
2023-04-24T08:58:07.834Z,99318.96
2023-04-24T09:00:34.675Z,99317.95
2023-04-24T09:03:01.893Z,99313.16
2023-04-24T09:05:28.934Z,99310.25
2023-04-24T09:07:56.999Z,99306.65
2023-04-24T09:10:25.110Z,99309.45
2023-04-24T09:12:52.913Z,99303.59
2023-04-24T09:15:21.514Z,99301.51
2023-04-24T09:17:48.781Z,99302.27
2023-04-24T09:20:15.813Z,99295.26
2023-04-24T09:22:44.010Z,99298.02
2023-04-24T09:25:13.735Z,99290.71
2023-04-24T09:27:47.413Z,99291.47
2023-04-24T09:30:14.977Z,99288.21
2023-04-24T09:32:42.927Z,99282.94
2023-04-24T09:35:11.337Z,99280.43
2023-04-24T09:37:43.441Z,99275.63
2023-04-24T09:40:21.589Z,99272.61
2023-04-24T09:42:56.830Z,99270.55
2023-04-24T09:45:28.200Z,99270.69
2023-04-24T09:47:56.873Z,99275.88
2023-04-24T09:50:24.115Z,99272.94
2023-04-24T09:52:59.552Z,99272.65
2023-04-24T09:55:26.655Z,99267.02
2023-04-24T09:57:58.021Z,99266.05
2023-04-24T10:00:27.207Z,99260.39
2023-04-24T10:03:01.774Z,99255.85
2023-04-24T10:05:33.748Z,99258.26
2023-04-24T10:08:08.203Z,99259.16
2023-04-24T10:10:39.470Z,99250.27
2023-04-24T10:13:06.622Z,99247.82
2023-04-24T10:15:33.626Z,99246.39
2023-04-24T10:18:00.789Z,99242.95
2023-04-24T10:20:30.556Z,99245.32
2023-04-24T10:22:58.524Z,99237.48
2023-04-24T10:25:27.220Z,99237.86
2023-04-24T10:27:54.372Z,99235.43
2023-04-24T10:30:21.341Z,99238.67
2023-04-24T10:32:48.297Z,99242.05
2023-04-24T10:35:16.008Z,99241.88
2023-04-24T10:37:57.079Z,99243.20
2023-04-24T10:40:29.208Z,99242.83
2023-04-24T10:42:58.083Z,99245.16
2023-04-24T10:45:26.204Z,99243.67
2023-04-24T10:47:59.726Z,99242.80
2023-04-24T10:50:28.303Z,99247.16
2023-04-24T10:53:05.865Z,99243.52
2023-04-24T10:55:53.639Z,99240.20
2023-04-24T10:58:24.298Z,99236.98
2023-04-24T11:00:59.436Z,99234.23
2023-04-24T11:03:31.818Z,99233.02
2023-04-24T11:06:03.974Z,99236.45
2023-04-24T11:08:33.284Z,99227.95
2023-04-24T11:11:05.264Z,99223.43
2023-04-24T11:13:57.905Z,99219.56
2023-04-24T11:16:27.827Z,99221.37
2023-04-24T11:19:08.070Z,99218.02
2023-04-24T11:21:44.088Z,99215.09
2023-04-24T11:24:33.790Z,99218.05
2023-04-24T11:27:00.682Z,99214.29
2023-04-24T11:29:56.060Z,99211.98
2023-04-24T11:32:37.949Z,99216.14
2023-04-24T11:35:22.436Z,99213.80
2023-04-24T11:40:21.707Z,99216.40
2023-04-24T11:42:48.966Z,99215.27
2023-04-24T11:45:23.206Z,99214.69
2023-04-24T11:47:51.189Z,99212.71
2023-04-24T11:50:19.906Z,99210.98
2023-04-24T11:52:47.839Z,99209.55
2023-04-24T11:55:17.743Z,99208.05
2023-04-24T11:57:49.031Z,99207.35
2023-04-24T12:00:21.575Z,99209.48
2023-04-24T12:02:49.245Z,99209.52
2023-04-24T12:05:32.743Z,99212.95
2023-04-24T12:08:00.222Z,99215.05
2023-04-24T12:10:28.925Z,99218.61
2023-04-24T12:12:57.194Z,99214.89
2023-04-24T12:15:24.359Z,99215.21
2023-04-24T12:17:55.020Z,99211.69
2023-04-24T12:20:29.348Z,99209.39
2023-04-24T12:23:01.036Z,99208.84
2023-04-24T12:25:29.570Z,99211.37
2023-04-24T12:27:57.257Z,99205.03
2023-04-24T12:30:29.104Z,99205.08
2023-04-24T12:32:58.162Z,99206.73
2023-04-24T12:35:26.641Z,99207.67
2023-04-24T12:37:53.629Z,99208.97
2023-04-24T12:40:21.635Z,99208.01
2023-04-24T12:42:50.247Z,99211.70
2023-04-24T12:45:18.029Z,99209.73
2023-04-24T12:47:46.081Z,99212.10
2023-04-24T12:50:14.937Z,99212.21
2023-04-24T12:52:42.442Z,99215.21
2023-04-24T12:55:10.430Z,99225.64
2023-04-24T12:57:38.408Z,99210.69
2023-04-24T13:00:07.199Z,99203.48
2023-04-24T13:02:35.277Z,99203.23
2023-04-24T13:05:02.784Z,99204.16
2023-04-24T13:07:29.755Z,99206.47
2023-04-24T13:09:57.035Z,99206.79
2023-04-24T13:12:25.169Z,99203.55
2023-04-24T13:14:52.229Z,99200.27
2023-04-24T13:17:19.179Z,99190.73
2023-04-24T13:19:46.747Z,99187.48
2023-04-24T13:22:13.994Z,99183.48
2023-04-24T13:24:43.922Z,99181.88
2023-04-24T13:27:10.914Z,99177.92
2023-04-24T13:29:38.530Z,99175.34
2023-04-24T13:32:05.733Z,99168.77
2023-04-24T13:34:32.753Z,99165.62
2023-04-24T13:36:59.843Z,99162.85
2023-04-24T13:39:27.227Z,99161.05
2023-04-24T13:41:54.833Z,99153.75
2023-04-24T13:44:21.996Z,99155.23
2023-04-24T13:46:49.795Z,99152.55
2023-04-24T13:49:16.831Z,99152.31
2023-04-24T13:51:43.766Z,99148.22
2023-04-24T13:54:10.867Z,99147.00
2023-04-24T13:56:37.774Z,99148.55
2023-04-24T13:59:04.610Z,99150.09
2023-04-24T14:01:32.018Z,99150.67
2023-04-24T14:03:59.187Z,99151.09
2023-04-24T14:06:27.000Z,99151.34
2023-04-24T14:08:54.014Z,99151.91
2023-04-24T14:11:21.119Z,99149.23
2023-04-24T14:13:48.066Z,99151.73
2023-04-24T14:16:15.778Z,99148.86
2023-04-24T14:18:42.785Z,99149.46
2023-04-24T14:21:09.932Z,99148.61
2023-04-24T14:23:36.940Z,99149.07
2023-04-24T14:26:03.745Z,99143.79
2023-04-24T14:28:30.661Z,99142.61
2023-04-24T14:30:57.518Z,99139.39
2023-04-24T14:33:24.470Z,99135.64
2023-04-24T14:35:51.339Z,99134.00
2023-04-24T14:38:18.206Z,99133.97
2023-04-24T14:41:05.570Z,99133.08
2023-04-24T14:43:32.056Z,99134.39
2023-04-24T14:45:59.088Z,99132.33
2023-04-24T14:48:26.160Z,99132.55
2023-04-24T14:50:52.996Z,99130.01
2023-04-24T14:53:20.059Z,99129.42
2023-04-24T14:55:47.016Z,99126.48
2023-04-24T14:58:13.961Z,99125.23
2023-04-24T15:00:41.217Z,99124.09
2023-04-24T15:03:08.737Z,99119.59
2023-04-24T15:05:36.994Z,99120.00
2023-04-24T15:08:04.296Z,99116.95
2023-04-24T15:10:31.192Z,99117.48
2023-04-24T15:12:58.067Z,99113.48
2023-04-24T15:15:25.638Z,99111.94
2023-04-24T15:17:58.035Z,99112.47
2023-04-24T15:20:25.103Z,99111.79
2023-04-24T15:22:52.269Z,99105.75
2023-04-24T15:25:19.417Z,99102.10
2023-04-24T15:27:47.317Z,99102.02
2023-04-24T15:30:15.142Z,99104.73
2023-04-24T15:32:42.328Z,99103.20
2023-04-24T15:35:10.528Z,99101.60
2023-04-24T15:37:43.906Z,99096.60
2023-04-24T15:40:14.460Z,99100.77
2023-04-24T15:42:42.339Z,99094.67
2023-04-24T15:45:13.008Z,99092.99
2023-04-24T15:47:42.600Z,99089.15
2023-04-24T15:50:12.763Z,99087.34
2023-04-24T15:52:41.221Z,99086.61
2023-04-24T15:55:08.451Z,99082.60
2023-04-24T15:57:38.654Z,99074.48
2023-04-24T16:00:07.510Z,99071.52
2023-04-24T16:02:40.973Z,99072.16
2023-04-24T16:05:12.683Z,99073.23
2023-04-24T16:07:42.089Z,99068.52
2023-04-24T16:10:09.448Z,99069.13
2023-04-24T16:12:36.595Z,99068.86
2023-04-24T16:15:04.145Z,99064.23
2023-04-24T16:17:31.137Z,99062.34
2023-04-24T16:19:58.086Z,99061.91
2023-04-24T16:22:25.291Z,99058.48
2023-04-24T16:24:52.358Z,99059.33
2023-04-24T16:27:19.271Z,99056.89
2023-04-24T16:29:48.434Z,99054.40
2023-04-24T16:32:15.415Z,99053.77
2023-04-24T16:34:42.384Z,99055.45
2023-04-24T16:37:09.564Z,99052.39
2023-04-24T16:39:44.098Z,99055.64
2023-04-24T16:42:13.461Z,99054.59
2023-04-24T16:44:43.142Z,99054.86
2023-04-24T16:47:11.545Z,99055.81
2023-04-24T16:49:38.572Z,99054.77
2023-04-24T16:52:05.494Z,99053.10
2023-04-24T16:54:34.800Z,99053.75
2023-04-24T16:57:01.939Z,99052.33
2023-04-24T16:59:29.461Z,99052.40
2023-04-24T17:01:56.535Z,99051.39
2023-04-24T17:04:23.531Z,99048.69
2023-04-24T17:06:50.703Z,99046.44
2023-04-24T17:09:17.635Z,99046.29
2023-04-24T17:11:44.565Z,99050.21
2023-04-24T17:14:11.581Z,99049.28
2023-04-24T17:16:38.647Z,99046.98
2023-04-24T17:19:05.925Z,99048.00
2023-04-24T17:21:33.205Z,99046.55
2023-04-24T17:24:00.091Z,99051.25
2023-04-24T17:26:27.704Z,99051.58
2023-04-24T17:28:55.397Z,99054.28
2023-04-24T17:31:23.430Z,99053.78
2023-04-24T17:33:50.843Z,99055.90
2023-04-24T17:36:17.683Z,99059.63
2023-04-24T17:38:44.569Z,99060.86
2023-04-24T17:41:11.476Z,99060.58
2023-04-24T17:43:38.358Z,99060.17
2023-04-24T17:46:07.581Z,99061.30
2023-04-24T17:48:35.551Z,99060.44
2023-04-24T17:51:02.484Z,99059.83
2023-04-24T17:53:29.450Z,99065.39
2023-04-24T17:55:59.469Z,99065.14
2023-04-24T17:58:26.943Z,99065.32
2023-04-24T18:00:53.869Z,99071.41
2023-04-24T18:03:21.005Z,99071.04
2023-04-24T18:05:48.115Z,99071.20
2023-04-24T18:08:14.933Z,99073.07
2023-04-24T18:10:44.750Z,99080.52
2023-04-24T18:13:11.924Z,99082.17
2023-04-24T18:15:42.189Z,99079.83
2023-04-24T18:18:11.176Z,99080.69
2023-04-24T18:20:38.205Z,99082.73
2023-04-24T18:23:05.530Z,99083.18
2023-04-24T18:25:32.418Z,99083.48
2023-04-24T18:27:59.389Z,99088.15
2023-04-24T18:30:27.057Z,99089.77
2023-04-24T18:32:54.137Z,99092.59
2023-04-24T18:35:21.657Z,99094.93
2023-04-24T18:37:49.022Z,99095.72
2023-04-24T18:40:16.373Z,99095.27
2023-04-24T18:42:43.335Z,99094.41
2023-04-24T18:45:13.830Z,99098.20
2023-04-24T18:47:42.020Z,99098.66
2023-04-24T18:50:09.604Z,99098.21
2023-04-24T18:52:36.400Z,99095.46
2023-04-24T18:55:04.222Z,99096.55
2023-04-24T18:57:31.119Z,99095.44
2023-04-24T18:59:57.976Z,99093.71
2023-04-24T19:04:51.764Z,99097.29
2023-04-24T19:07:19.855Z,99093.23
2023-04-24T19:09:46.712Z,99092.27
2023-04-24T19:12:13.591Z,99092.75
2023-04-24T19:14:40.492Z,99092.06
2023-04-24T19:17:10.181Z,99091.71
2023-04-24T19:19:37.148Z,99092.27
2023-04-24T19:22:04.103Z,99091.55
2023-04-24T19:24:33.403Z,99093.57
2023-04-24T19:27:00.639Z,99094.91
2023-04-24T19:29:27.510Z,99089.73
2023-04-24T19:31:55.859Z,99088.55
2023-04-24T19:34:22.745Z,99092.33
2023-04-24T19:36:49.902Z,99088.80
2023-04-24T19:39:16.829Z,99085.83
2023-04-24T19:41:43.707Z,99088.21
2023-04-24T19:44:10.734Z,99086.17
2023-04-24T19:46:39.908Z,99084.01
2023-04-24T19:49:06.905Z,99083.67
2023-04-24T19:51:33.841Z,99083.63
2023-04-24T19:54:01.265Z,99082.54
2023-04-24T19:56:28.104Z,99081.02
2023-04-24T19:58:55.235Z,99079.29
2023-04-24T20:01:22.108Z,99080.58
2023-04-24T20:03:49.157Z,99079.80
2023-04-24T20:06:16.228Z,99078.95
2023-04-24T20:08:43.062Z,99079.04
2023-04-24T20:11:10.216Z,99080.89
2023-04-24T20:13:37.078Z,99080.09
2023-04-24T20:16:04.680Z,99078.61
2023-04-24T20:18:31.566Z,99074.41
2023-04-24T20:20:59.963Z,99074.46
2023-04-24T20:23:27.134Z,99075.69
2023-04-24T20:25:59.950Z,99071.70
2023-04-24T20:28:30.506Z,99076.90
2023-04-24T20:30:58.405Z,99080.25
2023-04-24T20:33:26.173Z,99081.55
2023-04-24T20:35:52.977Z,99082.18
2023-04-24T20:38:19.902Z,99077.33
2023-04-24T20:40:57.633Z,99078.38
2023-04-24T20:43:28.843Z,99083.16
2023-04-24T20:45:58.208Z,99080.46
2023-04-24T20:48:26.730Z,99082.52
2023-04-24T20:50:54.112Z,99076.98
2023-04-24T20:53:23.964Z,99070.98
2023-04-24T20:55:50.930Z,99072.62
2023-04-24T20:58:24.552Z,99072.39
2023-04-24T21:00:51.675Z,99074.75
2023-04-24T21:03:18.768Z,99070.56
2023-04-24T21:05:45.930Z,99070.52
2023-04-24T21:08:12.802Z,99068.31
2023-04-24T21:10:39.667Z,99067.69
2023-04-24T21:13:06.536Z,99062.76
2023-04-24T21:15:33.752Z,99061.70
2023-04-24T21:18:01.407Z,99061.33
2023-04-24T21:20:28.299Z,99059.36
2023-04-24T21:22:55.148Z,99066.20
2023-04-24T21:25:22.050Z,99065.77
2023-04-24T21:27:48.916Z,99071.38
2023-04-24T21:30:15.745Z,99067.63
2023-04-24T21:32:42.742Z,99062.42
2023-04-24T21:35:09.856Z,99061.78
2023-04-24T21:37:37.973Z,99060.62
2023-04-24T21:40:05.142Z,99059.66
2023-04-24T21:42:32.045Z,99055.35
2023-04-24T21:44:58.885Z,99058.35
2023-04-24T21:47:25.808Z,99053.10
2023-04-24T21:49:52.771Z,99050.67
2023-04-24T21:52:20.300Z,99045.59
2023-04-24T21:54:47.214Z,99048.23
2023-04-24T21:57:14.201Z,99047.24
2023-04-24T21:59:41.062Z,99044.77
2023-04-24T22:02:07.899Z,99041.48
2023-04-24T22:04:35.050Z,99043.23
2023-04-24T22:07:02.009Z,99045.06
2023-04-24T22:09:28.900Z,99046.73
2023-04-24T22:11:56.966Z,99049.33
2023-04-24T22:14:23.878Z,99050.42
2023-04-24T22:16:50.739Z,99052.02
2023-04-24T22:19:17.782Z,99050.73
2023-04-24T22:21:45.006Z,99049.98
2023-04-24T22:24:11.818Z,99044.27
2023-04-24T22:26:38.715Z,99042.61
2023-04-24T22:29:05.707Z,99035.43
2023-04-24T22:31:32.752Z,99034.44
2023-04-24T22:33:59.752Z,99030.06
2023-04-24T22:36:27.210Z,99030.97
2023-04-24T22:38:54.625Z,99027.30
2023-04-24T22:41:21.860Z,99027.64
2023-04-24T22:43:48.865Z,99021.33
2023-04-24T22:46:16.602Z,99020.98
2023-04-24T22:48:44.162Z,99017.48
2023-04-24T22:51:11.149Z,99020.37
2023-04-24T22:53:37.971Z,99014.84
2023-04-24T22:56:05.134Z,99013.34
2023-04-24T22:58:32.379Z,99010.84
2023-04-24T23:00:59.207Z,99013.89
2023-04-24T23:03:26.477Z,99011.02
2023-04-24T23:05:53.580Z,99007.25
2023-04-24T23:08:20.429Z,99010.63
2023-04-24T23:10:47.816Z,99006.79
2023-04-24T23:13:14.657Z,99005.49
2023-04-24T23:15:42.223Z,99001.77
2023-04-24T23:18:09.340Z,98995.02
2023-04-24T23:20:36.190Z,98996.02
2023-04-24T23:23:02.983Z,98995.09
2023-04-24T23:25:29.872Z,98995.73
2023-04-24T23:27:56.783Z,98998.10
2023-04-24T23:30:23.637Z,98998.86
2023-04-24T23:32:50.521Z,98999.97
2023-04-24T23:35:17.365Z,99002.39
2023-04-24T23:37:44.257Z,98998.79
2023-04-24T23:40:11.287Z,98994.61
2023-04-24T23:42:38.145Z,98990.13
2023-04-24T23:45:05.590Z,98982.38
2023-04-24T23:47:32.474Z,98976.90
2023-04-24T23:49:59.393Z,98978.29
2023-04-24T23:52:26.345Z,98977.69
2023-04-24T23:54:53.269Z,98973.44
2023-04-24T23:57:20.097Z,98970.75
2023-04-24T23:59:46.924Z,98965.43
